Time;durP1;ratioP1;P1;durP2;ratioP2;P2;SDS_P1;SDS_P2;PMS_P1;PMS_P2;Temp;Humidity;BMP_temperature;BMP_pressure;BME280_temperature;BME280_humidity;BME280_pressure;Samples;Min_cycle;Max_cycle;Signal;HPM_P1;HPM_P2
2022/03/24 00:01:20;;;;;;;6.20;5.60;;;5.40;89.10;;;;;;5070638;28;20300;-72
2022/03/24 00:03:46;;;;;;;6.20;5.60;;;5.30;90.00;;;;;;5066358;28;20662;-71
2022/03/24 00:06:12;;;;;;;9.73;6.17;;;5.30;90.30;;;;;;5069724;28;20180;-72
2022/03/24 00:08:38;;;;;;;6.10;5.50;;;5.20;90.90;;;;;;5069318;28;20190;-72
2022/03/24 00:11:04;;;;;;;6.43;5.80;;;5.20;91.10;;;;;;5065664;28;20206;-72
2022/03/24 00:13:29;;;;;;;6.83;5.37;;;5.10;91.50;;;;;;5065507;28;20184;-71
2022/03/24 00:15:55;;;;;;;6.10;5.50;;;5.00;92.20;;;;;;5070700;28;20195;-72
2022/03/24 00:18:21;;;;;;;7.17;5.70;;;4.90;92.40;;;;;;5068000;28;20650;-73
2022/03/24 00:20:46;;;;;;;6.60;5.90;;;4.90;92.60;;;;;;5066958;28;20265;-73
2022/03/24 00:23:12;;;;;;;7.00;5.67;;;4.90;92.90;;;;;;5063424;28;20273;-73
2022/03/24 00:25:38;;;;;;;6.17;5.53;;;4.90;93.10;;;;;;5068544;28;20617;-73
2022/03/24 00:28:06;;;;;;;6.43;5.50;;;4.80;93.40;;;;;;5067400;28;20179;-73
2022/03/24 00:30:31;;;;;;;7.20;6.03;;;4.80;93.60;;;;;;5064850;28;20250;-73
2022/03/24 00:32:57;;;;;;;7.53;5.73;;;4.70;93.80;;;;;;5068966;28;20230;-73
2022/03/24 00:35:24;;;;;;;5.97;5.17;;;4.70;94.20;;;;;;5068325;28;20199;-72
2022/03/24 00:37:50;;;;;;;8.80;5.80;;;4.70;94.50;;;;;;5061540;28;20528;-73
2022/03/24 00:40:17;;;;;;;5.93;5.33;;;4.70;94.80;;;;;;5068498;28;20186;-73
2022/03/24 00:42:43;;;;;;;8.63;5.33;;;4.80;95.20;;;;;;5067413;28;20167;-72
2022/03/24 00:45:15;;;;;;;7.00;5.30;;;4.90;95.30;;;;;;5061212;28;20271;-72
2022/03/24 00:47:42;;;;;;;6.93;6.23;;;4.80;95.40;;;;;;5066296;28;20179;-73
2022/03/24 00:50:09;;;;;;;6.33;5.73;;;4.80;95.50;;;;;;5068007;28;20583;-73
2022/03/24 00:52:41;;;;;;;6.70;6.00;;;4.80;95.60;;;;;;5062835;28;20177;-73
2022/03/24 00:55:09;;;;;;;8.60;6.30;;;4.70;96.30;;;;;;5061902;28;20212;-72
2022/03/24 00:57:35;;;;;;;6.70;6.03;;;4.60;97.00;;;;;;5066806;28;20546;-72
2022/03/24 01:00:01;;;;;;;9.47;6.27;;;4.50;98.00;;;;;;5065658;28;20179;-72
2022/03/24 01:02:28;;;;;;;9.50;6.40;;;4.40;98.70;;;;;;5067070;28;20195;-72
2022/03/24 01:04:55;;;;;;;7.03;6.33;;;4.30;99.60;;;;;;5061255;28;20195;-73
2022/03/24 01:07:21;;;;;;;8.73;5.70;;;4.30;99.90;;;;;;5064933;28;20201;-71
2022/03/24 01:09:47;;;;;;;6.90;6.20;;;4.30;99.90;;;;;;5062524;28;20246;-71
2022/03/24 01:12:13;;;;;;;8.13;6.07;;;4.20;99.90;;;;;;5058019;28;20184;-73
2022/03/24 01:14:39;;;;;;;6.93;5.63;;;4.20;99.90;;;;;;5065586;28;20264;-73
2022/03/24 01:17:07;;;;;;;6.10;5.33;;;4.20;99.90;;;;;;5062228;28;20183;-73
2022/03/24 01:19:33;;;;;;;7.40;6.03;;;4.20;99.90;;;;;;5066988;28;20658;-72
2022/03/24 01:22:00;;;;;;;6.40;5.80;;;4.10;99.90;;;;;;5067860;28;20221;-72
2022/03/24 01:24:27;;;;;;;7.33;5.70;;;4.10;99.90;;;;;;5065231;28;20214;-73
2022/03/24 01:26:52;;;;;;;6.97;6.27;;;4.10;99.90;;;;;;5066392;28;20243;-73
2022/03/24 01:29:19;;;;;;;8.13;5.70;;;4.00;99.90;;;;;;5064092;28;20175;-73
2022/03/24 01:31:45;;;;;;;6.73;6.03;;;4.00;99.90;;;;;;5064005;28;20715;-74
2022/03/24 01:34:11;;;;;;;6.27;5.57;;;4.00;99.90;;;;;;5064641;28;20285;-74
2022/03/24 01:36:37;;;;;;;6.47;5.70;;;4.00;99.90;;;;;;5059140;28;20225;-73
2022/03/24 01:39:03;;;;;;;7.67;6.00;;;4.00;99.90;;;;;;5065176;28;20183;-72
2022/03/24 01:41:28;;;;;;;7.43;5.60;;;3.90;99.90;;;;;;5061063;28;20188;-73
2022/03/24 01:43:54;;;;;;;6.13;5.63;;;3.80;99.90;;;;;;5063709;28;20182;-73
2022/03/24 01:46:21;;;;;;;7.80;6.10;;;3.80;99.90;;;;;;5060461;28;20186;-73
2022/03/24 01:48:47;;;;;;;8.93;6.17;;;3.80;99.90;;;;;;5066259;28;20217;-72
2022/03/24 01:51:13;;;;;;;6.47;5.77;;;3.70;99.90;;;;;;5062522;28;20203;-73
2022/03/24 01:53:39;;;;;;;6.43;5.80;;;3.70;99.90;;;;;;5063333;28;20594;-73
2022/03/24 01:56:05;;;;;;;6.27;5.50;;;3.60;99.90;;;;;;5060472;28;20200;-73
2022/03/24 01:58:33;;;;;;;5.97;5.47;;;3.60;99.90;;;;;;5068568;28;20182;-73
2022/03/24 02:01:25;;;;;;;8.57;6.10;;;3.60;99.90;;;;;;5062027;28;20180;-72
2022/03/24 02:03:53;;;;;;;7.30;6.17;;;3.50;99.90;;;;;;5065184;28;20197;-72
2022/03/24 02:06:18;;;;;;;7.07;6.37;;;3.50;99.90;;;;;;5059310;28;20186;-74
2022/03/24 02:08:45;;;;;;;6.60;5.57;;;3.40;99.90;;;;;;5061102;28;20258;-73
2022/03/24 02:11:10;;;;;;;8.90;6.23;;;3.40;99.90;;;;;;5060939;28;20196;-73
2022/03/24 02:13:37;;;;;;;8.37;6.00;;;3.30;99.90;;;;;;5061649;28;20186;-73
2022/03/24 02:16:10;;;;;;;7.97;7.13;;;3.30;99.90;;;;;;5060437;28;20204;-73
2022/03/24 02:18:35;;;;;;;7.30;6.37;;;3.30;99.90;;;;;;5068649;28;20202;-73
2022/03/24 02:21:01;;;;;;;6.17;5.57;;;3.40;99.90;;;;;;5069656;28;20183;-73
2022/03/24 02:23:27;;;;;;;7.47;5.80;;;3.50;99.90;;;;;;5071311;28;20219;-73
2022/03/24 02:25:54;;;;;;;6.10;5.50;;;3.50;99.90;;;;;;5068420;28;20214;-72
2022/03/24 02:28:22;;;;;;;7.30;5.97;;;3.60;99.90;;;;;;5070397;28;20213;-73
2022/03/24 02:30:49;;;;;;;5.93;5.43;;;3.70;99.90;;;;;;5068955;28;20540;-73
2022/03/24 02:33:15;;;;;;;9.17;6.23;;;3.80;99.90;;;;;;5066917;28;20171;-73
2022/03/24 02:35:41;;;;;;;6.43;5.73;;;3.80;99.90;;;;;;5071173;28;20218;-72
2022/03/24 02:38:06;;;;;;;7.67;6.10;;;3.70;99.90;;;;;;5069131;28;20658;-73
2022/03/24 02:40:32;;;;;;;7.23;6.37;;;3.50;99.90;;;;;;5067819;28;20187;-72
2022/03/24 02:43:00;;;;;;;7.50;6.20;;;3.30;99.90;;;;;;5070150;28;20190;-72
2022/03/24 02:45:25;;;;;;;10.30;6.90;;;3.20;99.90;;;;;;5070285;28;20202;-72
2022/03/24 02:47:51;;;;;;;6.70;6.00;;;3.20;99.90;;;;;;5069166;28;20262;-72
2022/03/24 02:50:16;;;;;;;7.73;6.10;;;3.20;99.90;;;;;;5067499;28;20581;-71
2022/03/24 02:52:42;;;;;;;6.63;6.03;;;3.20;99.90;;;;;;5071902;28;20246;-72
2022/03/24 02:55:08;;;;;;;6.97;6.27;;;3.20;99.90;;;;;;5064593;28;20200;-72
2022/03/24 02:57:34;;;;;;;10.97;6.77;;;3.10;99.90;;;;;;5066215;28;20217;-72
2022/03/24 03:00:00;;;;;;;7.33;6.00;;;3.10;99.90;;;;;;5076315;28;20228;-72
2022/03/24 03:02:26;;;;;;;7.80;6.47;;;3.10;99.90;;;;;;5073510;28;20195;-72
2022/03/24 03:04:53;;;;;;;7.63;6.17;;;3.10;99.90;;;;;;5066036;28;20290;-72
2022/03/24 03:07:22;;;;;;;7.27;6.53;;;3.00;99.90;;;;;;5063448;28;20183;-73
2022/03/24 03:09:49;;;;;;;7.40;6.20;;;3.00;99.90;;;;;;5068286;28;20214;-73
2022/03/24 03:12:16;;;;;;;10.77;7.17;;;2.90;99.90;;;;;;5068575;28;20235;-72
2022/03/24 03:14:42;;;;;;;9.27;6.53;;;2.80;99.90;;;;;;5067586;28;20194;-72
2022/03/24 03:17:09;;;;;;;7.37;6.63;;;2.70;99.90;;;;;;5065948;28;20643;-73
2022/03/24 03:19:34;;;;;;;7.43;6.73;;;2.70;99.90;;;;;;5070269;28;20638;-72
2022/03/24 03:22:00;;;;;;;7.30;6.60;;;2.60;99.90;;;;;;5067617;28;20223;-72
2022/03/24 03:24:26;;;;;;;8.00;6.77;;;2.60;99.90;;;;;;5067366;28;20581;-73
2022/03/24 03:26:53;;;;;;;8.00;7.00;;;2.60;99.90;;;;;;5072599;28;20213;-72
2022/03/24 03:29:22;;;;;;;9.27;7.23;;;2.50;99.90;;;;;;5075743;28;20182;-71
2022/03/24 03:31:48;;;;;;;8.17;7.30;;;2.50;99.90;;;;;;5068301;28;20187;-72
2022/03/24 03:34:15;;;;;;;8.57;7.43;;;2.50;99.90;;;;;;5066353;28;20667;-72
2022/03/24 03:36:41;;;;;;;7.37;6.63;;;2.50;99.90;;;;;;5068101;28;20171;-72
2022/03/24 03:39:08;;;;;;;8.00;7.10;;;2.50;99.90;;;;;;5063674;28;20609;-72
2022/03/24 03:41:35;;;;;;;7.57;6.77;;;2.40;99.90;;;;;;5063369;28;20184;-73
2022/03/24 03:44:02;;;;;;;11.77;6.83;;;2.40;99.90;;;;;;5077792;28;20189;-73
2022/03/24 03:46:27;;;;;;;7.90;6.43;;;2.40;99.90;;;;;;5059365;28;20217;-73
2022/03/24 03:48:54;;;;;;;7.97;6.90;;;2.40;99.90;;;;;;5067739;28;20187;-73
2022/03/24 03:51:19;;;;;;;7.20;6.50;;;2.40;99.90;;;;;;5066357;28;20765;-73
2022/03/24 03:53:45;;;;;;;6.80;6.20;;;2.40;99.90;;;;;;5076710;28;20261;-73
2022/03/24 03:56:12;;;;;;;7.43;6.60;;;2.40;99.90;;;;;;5067069;28;20182;-73
2022/03/24 03:58:38;;;;;;;8.00;7.20;;;2.50;99.90;;;;;;5062846;28;20179;-75
2022/03/24 04:01:04;;;;;;;7.70;6.40;;;2.60;99.90;;;;;;5060598;28;20236;-74
2022/03/24 04:03:32;;;;;;;9.77;6.60;;;2.60;99.90;;;;;;5058826;28;20674;-74
2022/03/24 04:06:04;;;;;;;7.00;6.30;;;2.60;99.90;;;;;;5066147;28;20249;-74
2022/03/24 04:08:31;;;;;;;8.57;7.00;;;2.70;99.90;;;;;;5058495;28;20643;-73
2022/03/24 04:10:57;;;;;;;11.00;7.10;;;2.70;99.90;;;;;;5060806;28;20535;-72
2022/03/24 04:13:23;;;;;;;8.07;7.00;;;2.50;99.90;;;;;;5068448;28;20178;-74
2022/03/24 04:15:50;;;;;;;8.57;7.63;;;2.30;99.90;;;;;;5063581;28;20203;-73
2022/03/24 04:18:16;;;;;;;7.70;6.80;;;2.30;99.90;;;;;;5064410;28;20631;-73
2022/03/24 04:20:43;;;;;;;9.53;6.97;;;2.20;99.90;;;;;;5064110;28;20179;-74
2022/03/24 04:23:09;;;;;;;7.63;6.93;;;2.10;99.90;;;;;;5065848;28;20183;-73
2022/03/24 04:25:35;;;;;;;9.67;8.03;;;2.10;99.90;;;;;;5062402;28;20237;-73
2022/03/24 04:28:02;;;;;;;8.13;7.33;;;2.00;99.90;;;;;;5058132;28;20547;-74
2022/03/24 04:30:27;;;;;;;8.70;7.43;;;1.90;99.90;;;;;;5057671;28;20725;-73
2022/03/24 04:32:54;;;;;;;7.80;6.93;;;1.80;99.90;;;;;;5061751;28;20267;-73
2022/03/24 04:35:20;;;;;;;8.17;7.30;;;1.70;99.90;;;;;;5062690;28;20677;-74
2022/03/24 04:37:47;;;;;;;8.40;7.23;;;1.70;99.90;;;;;;5067184;28;20176;-73
2022/03/24 04:40:16;;;;;;;7.50;6.80;;;1.70;99.90;;;;;;5065505;28;20183;-73
2022/03/24 04:42:46;;;;;;;10.37;7.13;;;1.70;99.90;;;;;;5063966;28;20182;-73
2022/03/24 04:45:13;;;;;;;9.77;8.27;;;1.70;99.90;;;;;;5058558;28;20696;-73
2022/03/24 04:47:40;;;;;;;10.70;7.43;;;1.70;99.90;;;;;;5061893;28;20773;-73
2022/03/24 04:50:06;;;;;;;7.67;6.93;;;1.60;99.90;;;;;;5058623;28;20258;-73
2022/03/24 04:52:32;;;;;;;8.60;7.40;;;1.60;99.90;;;;;;5054708;28;20234;-74
2022/03/24 04:55:01;;;;;;;7.47;6.67;;;1.60;99.90;;;;;;5057924;28;20461;-74
2022/03/24 04:57:27;;;;;;;8.50;7.27;;;1.70;99.90;;;;;;5062883;28;20182;-74
2022/03/24 04:59:53;;;;;;;8.97;7.40;;;1.70;99.90;;;;;;5060456;28;20183;-74
2022/03/24 05:02:19;;;;;;;7.63;6.83;;;1.60;99.90;;;;;;5059105;28;20200;-74
2022/03/24 05:04:46;;;;;;;9.63;6.90;;;1.60;99.90;;;;;;5057941;28;20300;-74
2022/03/24 05:07:12;;;;;;;9.83;7.37;;;1.70;99.90;;;;;;5058020;28;20661;-73
2022/03/24 05:09:38;;;;;;;9.47;7.37;;;1.70;99.90;;;;;;5057920;28;20178;-73
2022/03/24 05:12:05;;;;;;;10.57;6.80;;;1.70;99.90;;;;;;5063598;28;20180;-74
2022/03/24 05:14:32;;;;;;;9.57;6.80;;;1.80;99.90;;;;;;5067080;28;20191;-74
2022/03/24 05:16:59;;;;;;;7.13;6.30;;;1.70;99.90;;;;;;5062855;28;20575;-74
2022/03/24 05:19:24;;;;;;;8.27;7.33;;;1.70;99.90;;;;;;5064083;28;20545;-74
2022/03/24 05:21:50;;;;;;;7.77;6.97;;;1.70;99.90;;;;;;5068603;28;20187;-74
2022/03/24 05:24:16;;;;;;;7.73;6.80;;;1.70;99.90;;;;;;5057793;28;20734;-74
2022/03/24 05:26:42;;;;;;;11.80;8.07;;;1.80;99.90;;;;;;5052316;28;20188;-74
2022/03/24 05:29:08;;;;;;;11.30;7.30;;;1.80;99.90;;;;;;5056979;28;20183;-74
2022/03/24 05:31:34;;;;;;;11.60;7.23;;;1.90;99.90;;;;;;5064693;28;20200;-74
2022/03/24 05:33:59;;;;;;;9.37;7.80;;;2.00;99.90;;;;;;5057853;28;20188;-72
2022/03/24 05:36:25;;;;;;;9.57;7.37;;;2.00;99.90;;;;;;5065989;28;20650;-74
2022/03/24 05:38:51;;;;;;;10.63;7.77;;;2.00;99.90;;;;;;5068890;28;20171;-74
2022/03/24 05:41:17;;;;;;;9.87;7.57;;;2.10;99.90;;;;;;5064656;28;20204;-73
2022/03/24 05:44:02;;;;;;;10.47;7.70;;;2.20;99.90;;;;;;5059442;28;20187;-73
2022/03/24 05:46:40;;;;;;;10.40;8.00;;;2.20;99.90;;;;;;5066844;28;20176;-72
2022/03/24 05:49:06;;;;;;;9.40;7.20;;;2.30;99.90;;;;;;5063934;28;20184;-72
2022/03/24 05:51:33;;;;;;;9.37;8.10;;;2.30;99.90;;;;;;5063543;28;20203;-71
2022/03/24 05:53:59;;;;;;;9.77;7.87;;;2.30;99.90;;;;;;5066690;28;20654;-72
2022/03/24 05:56:25;;;;;;;11.83;8.20;;;2.40;99.90;;;;;;5063096;28;20211;-72
2022/03/24 05:58:51;;;;;;;14.40;9.30;;;2.50;99.90;;;;;;5063151;28;20171;-72
2022/03/24 06:01:17;;;;;;;8.83;7.93;;;2.60;99.90;;;;;;5064014;28;20180;-72
2022/03/24 06:03:45;;;;;;;10.27;7.73;;;2.70;99.90;;;;;;5067678;28;20270;-73
2022/03/24 06:06:12;;;;;;;9.80;7.70;;;2.80;99.90;;;;;;5064889;28;20175;-72
2022/03/24 06:08:51;;;;;;;13.07;8.80;;;2.80;99.90;;;;;;5070931;28;20175;-73
2022/03/24 06:11:17;;;;;;;13.97;8.93;;;2.90;99.90;;;;;;5067411;28;20210;-72
2022/03/24 06:13:43;;;;;;;7.90;6.97;;;2.90;99.90;;;;;;5065001;28;20565;-72
2022/03/24 06:16:09;;;;;;;9.80;8.20;;;3.00;99.90;;;;;;5062678;28;20224;-72
2022/03/24 06:18:36;;;;;;;13.37;8.23;;;3.00;99.90;;;;;;5065333;28;20186;-73
2022/03/24 06:21:04;;;;;;;10.00;8.90;;;3.10;99.90;;;;;;5062488;28;20646;-72
2022/03/24 06:23:30;;;;;;;10.30;8.27;;;3.20;99.90;;;;;;5068922;28;20551;-72
2022/03/24 06:25:56;;;;;;;14.40;8.53;;;3.30;99.90;;;;;;5065291;28;20222;-72
2022/03/24 06:28:21;;;;;;;10.37;7.83;;;3.40;99.90;;;;;;5062342;28;20179;-72
2022/03/24 06:30:47;;;;;;;11.03;8.47;;;3.50;99.90;;;;;;5066602;28;20202;-72
2022/03/24 06:33:16;;;;;;;12.07;9.50;;;3.60;99.90;;;;;;5065459;28;20183;-71
2022/03/24 06:35:43;;;;;;;11.77;8.33;;;3.70;99.90;;;;;;5063839;28;20187;-70
2022/03/24 06:38:09;;;;;;;9.60;8.57;;;3.70;99.90;;;;;;5059990;28;20684;-71
2022/03/24 06:40:35;;;;;;;10.93;8.27;;;3.80;99.90;;;;;;5062274;28;20442;-71
2022/03/24 06:43:00;;;;;;;11.57;9.10;;;3.90;99.90;;;;;;5073551;28;20556;-71
2022/03/24 06:45:26;;;;;;;12.00;8.57;;;4.00;99.90;;;;;;5071406;28;20630;-70
2022/03/24 06:47:53;;;;;;;12.17;9.03;;;4.00;99.90;;;;;;5065038;28;20214;-71
2022/03/24 06:50:18;;;;;;;14.07;10.27;;;4.10;99.90;;;;;;5061374;28;20250;-73
2022/03/24 06:52:44;;;;;;;10.57;8.93;;;4.20;99.90;;;;;;5068463;28;20175;-71
2022/03/24 06:55:12;;;;;;;11.10;8.20;;;4.20;99.90;;;;;;5065646;28;20257;-71
2022/03/24 06:57:39;;;;;;;12.93;8.60;;;4.30;99.90;;;;;;5067193;28;21192;-71
2022/03/24 07:00:06;;;;;;;9.90;8.37;;;4.40;99.90;;;;;;5070217;28;20180;-71
2022/03/24 07:02:32;;;;;;;9.83;8.47;;;4.50;99.90;;;;;;5067104;28;20179;-72
2022/03/24 07:04:57;;;;;;;13.07;8.90;;;4.50;99.90;;;;;;5067420;28;20205;-72
2022/03/24 07:07:25;;;;;;;10.20;8.13;;;4.60;99.90;;;;;;5064251;28;20647;-71
2022/03/24 07:09:51;;;;;;;13.90;8.97;;;4.70;99.90;;;;;;5069384;28;20654;-71
2022/03/24 07:12:19;;;;;;;10.97;8.70;;;4.70;99.90;;;;;;5062530;28;20203;-72
2022/03/24 07:14:45;;;;;;;10.67;9.13;;;4.90;99.90;;;;;;5057949;28;20253;-72
2022/03/24 07:17:11;;;;;;;10.90;9.63;;;5.00;99.90;;;;;;5057054;28;20180;-71
2022/03/24 07:19:37;;;;;;;10.77;8.43;;;5.10;99.90;;;;;;5066245;28;20262;-71
2022/03/24 07:22:03;;;;;;;9.00;8.10;;;5.20;99.90;;;;;;5058915;28;20297;-71
2022/03/24 07:24:29;;;;;;;12.37;9.23;;;5.30;99.90;;;;;;5065686;28;20680;-70
2022/03/24 07:26:54;;;;;;;11.73;9.03;;;5.40;99.90;;;;;;5062682;28;20223;-74
2022/03/24 07:29:20;;;;;;;10.87;8.93;;;5.50;99.90;;;;;;5063214;28;20184;-71
2022/03/24 07:31:45;;;;;;;10.83;9.73;;;5.60;99.90;;;;;;5061796;28;20212;-71
2022/03/24 07:34:11;;;;;;;10.70;9.00;;;5.70;99.90;;;;;;5065903;28;20270;-71
2022/03/24 07:36:40;;;;;;;9.83;8.30;;;5.70;99.90;;;;;;5067814;28;20621;-71
2022/03/24 07:39:05;;;;;;;12.10;9.10;;;5.70;99.90;;;;;;5068177;28;20172;-75
2022/03/24 07:41:32;;;;;;;11.57;8.67;;;5.90;99.90;;;;;;5065884;28;20198;-75
2022/03/24 07:43:58;;;;;;;11.63;9.27;;;6.00;99.90;;;;;;5067126;28;20180;-70
2022/03/24 07:46:24;;;;;;;10.03;8.83;;;6.10;99.90;;;;;;5055628;28;20573;-72
2022/03/24 07:48:49;;;;;;;11.20;9.07;;;6.10;99.90;;;;;;5063644;28;20263;-70
2022/03/24 07:51:18;;;;;;;11.63;9.03;;;6.30;99.90;;;;;;5059237;28;20199;-72
2022/03/24 07:53:47;;;;;;;13.57;9.57;;;6.40;99.90;;;;;;5062508;28;20178;-71
2022/03/24 07:56:13;;;;;;;9.40;8.33;;;6.40;99.90;;;;;;5058890;28;20551;-72
2022/03/24 07:58:39;;;;;;;9.80;8.80;;;6.50;99.90;;;;;;5060911;28;20180;-72
2022/03/24 08:01:06;;;;;;;10.03;9.03;;;6.50;99.90;;;;;;5054578;28;20198;-72
2022/03/24 08:03:32;;;;;;;8.97;8.07;;;6.60;99.90;;;;;;5056680;28;20582;-72
2022/03/24 08:05:58;;;;;;;10.20;9.03;;;6.70;99.90;;;;;;5059883;28;20206;-72
2022/03/24 08:08:24;;;;;;;11.17;8.77;;;6.80;99.90;;;;;;5060433;28;20176;-76
2022/03/24 08:10:51;;;;;;;11.13;8.20;;;6.90;99.90;;;;;;5064955;28;20286;-77
2022/03/24 08:13:18;;;;;;;13.47;9.27;;;7.10;99.90;;;;;;5063076;28;20225;-72
2022/03/24 08:15:45;;;;;;;10.17;8.47;;;7.10;99.90;;;;;;5059735;28;20755;-73
2022/03/24 08:18:12;;;;;;;9.87;8.40;;;7.20;99.90;;;;;;5064079;28;20210;-73
2022/03/24 08:20:39;;;;;;;9.87;8.17;;;7.30;99.90;;;;;;5058548;28;20187;-72
2022/03/24 08:23:08;;;;;;;8.83;7.97;;;7.40;99.90;;;;;;5056491;28;20210;-73
2022/03/24 08:25:35;;;;;;;10.20;8.60;;;7.60;99.90;;;;;;5058297;28;20209;-73
2022/03/24 08:28:02;;;;;;;9.83;8.53;;;7.70;99.90;;;;;;5058637;28;20183;-73
2022/03/24 08:30:28;;;;;;;11.93;7.57;;;7.80;99.90;;;;;;5054703;28;20222;-73
2022/03/24 08:32:53;;;;;;;10.60;8.33;;;7.90;99.90;;;;;;5059753;28;20176;-72
2022/03/24 08:35:19;;;;;;;11.88;7.88;;;8.00;99.90;;;;;;5053829;28;20203;-72
2022/03/24 08:37:45;;;;;;;9.00;8.10;;;8.20;99.90;;;;;;5058398;28;20783;-74
2022/03/24 08:40:11;;;;;;;11.48;7.97;;;8.30;99.90;;;;;;5059784;28;20202;-73
2022/03/24 08:42:38;;;;;;;10.73;8.55;;;8.50;99.90;;;;;;5055563;28;20179;-73
2022/03/24 08:45:05;;;;;;;9.15;7.80;;;8.60;99.90;;;;;;5056098;28;20203;-72
2022/03/24 08:47:31;;;;;;;9.48;8.30;;;8.70;99.90;;;;;;5059334;28;20183;-77
2022/03/24 08:49:56;;;;;;;9.52;8.15;;;8.90;99.30;;;;;;5064855;28;20211;-75
2022/03/24 08:52:22;;;;;;;8.35;7.55;;;9.20;98.20;;;;;;5064336;28;20184;-74
2022/03/24 08:54:49;;;;;;;8.77;7.63;;;9.30;96.30;;;;;;5059082;28;20226;-74
2022/03/24 08:57:14;;;;;;;10.95;8.63;;;9.60;95.90;;;;;;5056182;28;20180;-75
2022/03/24 08:59:40;;;;;;;9.35;8.43;;;10.10;94.60;;;;;;5066984;28;20547;-75
2022/03/24 09:02:06;;;;;;;10.32;9.32;;;11.60;92.80;;;;;;5061261;28;20179;-74
2022/03/24 09:04:31;;;;;;;9.32;8.43;;;14.10;80.90;;;;;;5057595;28;20227;-74
2022/03/24 09:06:57;;;;;;;8.95;7.95;;;16.80;66.60;;;;;;5065018;28;20269;-75
2022/03/24 09:09:22;;;;;;;8.93;8.02;;;19.30;57.20;;;;;;5060445;28;20183;-75
2022/03/24 09:11:49;;;;;;;8.98;8.07;;;21.40;50.10;;;;;;5059078;28;20209;-75
2022/03/24 09:14:16;;;;;;;9.52;8.25;;;23.10;45.90;;;;;;5057377;28;20577;-75
2022/03/24 09:16:42;;;;;;;9.55;8.10;;;24.20;42.70;;;;;;5064402;28;20679;-75
2022/03/24 09:19:08;;;;;;;8.90;7.97;;;25.50;40.20;;;;;;5069803;28;20657;-74
2022/03/24 09:21:33;;;;;;;8.57;7.50;;;25.90;37.70;;;;;;5059554;28;20179;-74
2022/03/24 09:23:59;;;;;;;10.18;8.40;;;25.90;37.50;;;;;;5063289;28;20274;-77
2022/03/24 09:26:25;;;;;;;9.10;8.13;;;26.40;36.00;;;;;;5062668;28;20203;-79
2022/03/24 09:28:52;;;;;;;11.25;8.35;;;27.40;35.20;;;;;;5060647;28;20179;-77
2022/03/24 09:31:19;;;;;;;9.95;7.93;;;28.20;34.50;;;;;;5063036;28;21027;-76
2022/03/24 09:33:44;;;;;;;9.48;8.45;;;29.20;34.40;;;;;;5065015;28;20560;-74
2022/03/24 09:36:11;;;;;;;9.32;8.40;;;29.80;32.20;;;;;;5063060;28;20199;-73
2022/03/24 09:38:37;;;;;;;8.48;7.32;;;30.40;30.90;;;;;;5066460;28;20180;-73
2022/03/24 09:41:05;;;;;;;9.25;7.32;;;30.50;30.90;;;;;;5056145;28;20214;-73
2022/03/24 09:43:34;;;;;;;8.38;7.60;;;31.30;30.90;;;;;;5064180;28;20259;-73
2022/03/24 09:46:01;;;;;;;9.60;7.72;;;32.40;30.10;;;;;;5055939;28;20203;-73
2022/03/24 09:48:27;;;;;;;8.65;7.85;;;33.30;28.20;;;;;;5067756;28;20221;-73
2022/03/24 09:50:53;;;;;;;9.20;8.30;;;32.70;28.80;;;;;;5056883;28;20623;-72
2022/03/24 09:53:19;;;;;;;7.88;7.15;;;32.90;28.80;;;;;;5059585;28;20171;-70
2022/03/24 09:55:47;;;;;;;8.15;7.47;;;33.40;28.20;;;;;;5058712;28;20282;-70
2022/03/24 09:58:13;;;;;;;10.18;8.00;;;34.00;26.90;;;;;;5061920;28;20187;-70
2022/03/24 10:00:39;;;;;;;8.82;7.53;;;32.60;27.70;;;;;;5066576;28;20277;-71
2022/03/24 10:03:12;;;;;;;8.38;7.50;;;31.30;28.30;;;;;;5066242;28;20255;-71
2022/03/24 10:05:54;;;;;;;7.28;6.68;;;31.40;29.20;;;;;;5065728;28;20206;-71
2022/03/24 10:08:20;;;;;;;7.72;6.93;;;31.50;28.10;;;;;;5065618;28;20557;-72
2022/03/24 10:10:46;;;;;;;7.78;7.03;;;32.10;28.30;;;;;;5066671;28;20200;-71
2022/03/24 10:13:11;;;;;;;8.68;7.68;;;32.20;27.30;;;;;;5064608;28;20543;-71
2022/03/24 10:15:38;;;;;;;10.63;7.93;;;32.20;29.40;;;;;;5066466;28;20223;-71
2022/03/24 10:18:04;;;;;;;8.88;7.82;;;32.50;28.70;;;;;;5061712;28;20184;-71
2022/03/24 10:20:30;;;;;;;8.18;7.53;;;33.00;27.70;;;;;;5063576;28;20180;-70
2022/03/24 10:23:04;;;;;;;9.27;8.10;;;34.10;26.60;;;;;;5066280;28;20238;-70
2022/03/24 10:25:39;;;;;;;8.55;7.80;;;34.50;27.00;;;;;;5065378;28;20728;-70
2022/03/24 10:28:14;;;;;;;8.80;8.10;;;32.90;26.70;;;;;;5063894;28;20182;-70
2022/03/24 10:30:58;;;;;;;8.85;7.97;;;31.60;27.30;;;;;;5067034;28;20629;-69
2022/03/24 10:33:28;;;;;;;8.77;7.78;;;31.90;27.40;;;;;;5066251;28;20689;-70
2022/03/24 10:36:12;;;;;;;8.70;6.78;;;32.30;28.20;;;;;;5068504;28;20238;-69
2022/03/24 10:38:43;;;;;;;8.45;7.13;;;33.50;28.30;;;;;;5063327;28;20175;-70
2022/03/24 10:41:27;;;;;;;7.18;6.57;;;34.90;27.80;;;;;;5061920;28;20228;-70
2022/03/24 10:43:55;;;;;;;10.50;7.28;;;36.00;25.50;;;;;;5064123;28;20190;-69
2022/03/24 10:46:26;;;;;;;7.63;6.85;;;35.70;27.10;;;;;;5057857;28;20275;-71
2022/03/24 10:48:53;;;;;;;8.10;7.50;;;35.40;27.20;;;;;;5066010;28;20545;-70
2022/03/24 10:51:25;;;;;;;6.55;6.05;;;36.10;26.10;;;;;;5063160;28;20217;-70
2022/03/24 10:53:53;;;;;;;7.22;6.45;;;35.80;26.10;;;;;;5057861;28;20179;-70
2022/03/24 10:56:25;;;;;;;8.40;7.38;;;35.90;25.20;;;;;;5058833;28;20262;-72
2022/03/24 10:58:55;;;;;;;7.82;7.10;;;36.40;25.10;;;;;;5064277;28;20170;-71
2022/03/24 11:01:23;;;;;;;8.85;7.70;;;36.80;24.70;;;;;;5066695;28;20206;-71
2022/03/24 11:03:48;;;;;;;7.53;6.93;;;36.90;24.80;;;;;;5061561;28;20178;-70
2022/03/24 11:06:17;;;;;;;8.70;7.82;;;36.70;24.20;;;;;;5059505;28;20187;-71
2022/03/24 11:08:44;;;;;;;7.50;6.93;;;37.10;25.70;;;;;;5065381;28;20199;-71
2022/03/24 11:11:15;;;;;;;7.80;7.18;;;37.20;24.50;;;;;;5064276;28;20229;-71
2022/03/24 11:13:46;;;;;;;8.60;7.80;;;36.50;25.50;;;;;;5063109;28;20178;-70
2022/03/24 11:16:13;;;;;;;8.32;7.68;;;36.40;25.50;;;;;;5066467;28;20232;-71
2022/03/24 11:18:40;;;;;;;8.82;7.95;;;37.20;25.10;;;;;;5058984;28;20189;-71
2022/03/24 11:21:23;;;;;;;8.60;7.70;;;38.20;25.40;;;;;;5069274;28;20545;-71
2022/03/24 11:23:53;;;;;;;11.13;9.15;;;38.60;24.20;;;;;;5064314;28;20178;-71
2022/03/24 11:26:22;;;;;;;9.43;7.53;;;38.70;24.80;;;;;;5063667;28;20195;-72
2022/03/24 11:28:50;;;;;;;8.23;7.45;;;38.60;24.40;;;;;;5076420;28;20658;-71
2022/03/24 11:31:16;;;;;;;8.60;7.65;;;37.10;24.40;;;;;;5060623;28;20211;-71
2022/03/24 11:33:48;;;;;;;8.32;7.70;;;37.60;25.70;;;;;;5062564;28;20567;-71
2022/03/24 11:36:16;;;;;;;10.13;9.07;;;37.70;26.00;;;;;;5067887;28;20214;-71
2022/03/24 11:38:43;;;;;;;9.98;9.18;;;37.90;25.50;;;;;;5063329;28;20254;-71
2022/03/24 11:41:20;;;;;;;8.82;8.13;;;38.80;25.30;;;;;;5066666;28;20182;-71
2022/03/24 11:43:49;;;;;;;8.18;7.47;;;38.30;25.00;;;;;;5060211;28;20265;-70
2022/03/24 11:46:47;;;;;;;8.98;8.10;;;39.00;24.60;;;;;;5055780;28;20581;-71
2022/03/24 11:49:20;;;;;;;8.48;7.70;;;39.10;25.00;;;;;;5064416;28;20181;-71
2022/03/24 11:52:10;;;;;;;7.75;7.05;;;39.10;24.00;;;;;;5064330;28;20278;-74
2022/03/24 11:54:37;;;;;;;9.95;7.35;;;38.60;24.40;;;;;;5073400;28;20217;-74
2022/03/24 11:57:21;;;;;;;7.75;7.05;;;38.90;24.70;;;;;;5059937;28;20191;-71
2022/03/24 12:00:10;;;;;;;7.15;6.53;;;38.30;24.80;;;;;;5074926;28;20174;-70
2022/03/24 12:02:36;;;;;;;7.32;6.55;;;38.90;24.00;;;;;;5071299;28;20175;-70
2022/03/24 12:05:01;;;;;;;6.57;6.05;;;38.60;24.00;;;;;;5068580;28;20286;-70
2022/03/24 12:07:28;;;;;;;7.15;6.53;;;38.60;23.40;;;;;;5059519;28;20178;-70
2022/03/24 12:10:04;;;;;;;6.78;6.22;;;37.60;24.60;;;;;;5067795;28;20178;-71
2022/03/24 12:12:30;;;;;;;6.70;6.20;;;37.70;23.60;;;;;;5068515;28;20238;-70
2022/03/24 12:14:58;;;;;;;6.70;6.30;;;38.00;24.80;;;;;;5063302;28;20289;-71
2022/03/24 12:17:30;;;;;;;6.53;6.03;;;37.50;23.80;;;;;;5071961;28;20264;-70
2022/03/24 12:19:58;;;;;;;6.30;5.75;;;37.50;24.60;;;;;;5065223;28;20193;-70
2022/03/24 12:22:26;;;;;;;6.45;5.93;;;37.90;23.60;;;;;;5066969;28;20554;-69
2022/03/24 12:25:01;;;;;;;8.18;6.85;;;38.10;23.60;;;;;;5059183;28;20291;-70
2022/03/24 12:27:28;;;;;;;7.72;6.70;;;38.70;22.70;;;;;;5058558;28;20178;-72
2022/03/24 12:30:13;;;;;;;6.05;5.50;;;37.50;23.90;;;;;;5059184;28;20186;-71
2022/03/24 12:32:40;;;;;;;6.70;6.10;;;37.10;24.30;;;;;;5059274;28;20203;-72
2022/03/24 12:35:07;;;;;;;6.32;5.90;;;37.70;24.50;;;;;;5057522;28;20202;-71
2022/03/24 12:37:32;;;;;;;5.90;5.50;;;38.30;23.90;;;;;;5058685;28;20258;-71
2022/03/24 12:40:10;;;;;;;8.32;6.20;;;38.60;23.30;;;;;;5063162;28;20756;-71
2022/03/24 12:42:46;;;;;;;6.80;6.30;;;38.40;24.30;;;;;;5069151;28;20254;-72
2022/03/24 12:45:32;;;;;;;6.97;6.30;;;37.80;24.30;;;;;;5057476;28;20195;-70
2022/03/24 12:48:09;;;;;;;7.50;6.90;;;37.50;24.60;;;;;;5054382;28;20196;-73
2022/03/24 12:50:37;;;;;;;6.22;5.72;;;37.60;23.80;;;;;;5062855;28;20202;-72
2022/03/24 12:53:05;;;;;;;6.55;6.03;;;37.40;23.00;;;;;;5059917;28;20171;-72